KDHT/DHT METAR and TAF weather

Enter ICAO airport designator
Station Type Date Time Source
KDHT METAR 2023/09/28 01:53 UTC NOAA

KDHT 280153Z AUTO 16010KT 10SM CLR 23/07 A2999 RMK AO2 SLP107 T02330072


Station Type Date Time Source
KDHT Decoded METAR 2023/09/28 01:53 UTC NOAA

DALHART MUNICIPAL AIRPORT, TX, United States (KDHT) 36-01N 102-33W 1217M
Sep 27, 2023 - 09:53 PM EDT / 2023.09.28 0153 UTC
Wind: from the SSE (160 degrees) at 12 MPH (10 KT):0
Visibility: 10 mile(s):0
Sky conditions: clear
Temperature: 73.9 F (23.3 C)
Dew Point: 45.0 F (7.2 C)
Relative Humidity: 35%
Pressure (altimeter): 29.99 in. Hg (1015 hPa)
ob: KDHT 280153Z AUTO 16010KT 10SM CLR 23/07 A2999 RMK AO2 SLP107 T02330072
cycle: 2

Station Type Date Time Source
KDHT TAF 2023/09/27 18:24 UTC NOAA

TAF KDHT 271720Z 2718/2818 22012KT P6SM SKC
FM272100 17010KT P6SM SKC
FM281200 20016KT P6SM SKC

Example: see airport list